createdAt,value
2018-12-08T00:00:00.104Z,94278.16
2018-12-08T00:03:03.865Z,94282.48
2018-12-08T00:06:07.234Z,94297.02
2018-12-08T00:09:10.532Z,94311.42
2018-12-08T00:12:13.865Z,94315.73
2018-12-08T00:15:17.233Z,94324.06
2018-12-08T00:18:20.626Z,94342.21
2018-12-08T00:21:24.034Z,94347.58
2018-12-08T00:24:27.331Z,94371.52
2018-12-08T00:27:30.634Z,94376.63
2018-12-08T00:30:51.458Z,94397.13
2018-12-08T00:33:54.746Z,94420.29
2018-12-08T00:36:58.069Z,94412.36
2018-12-08T00:40:01.436Z,94426.79
2018-12-08T00:43:04.773Z,94425.37
2018-12-08T00:46:08.063Z,94430.86
2018-12-08T00:49:11.619Z,94449.19
2018-12-08T00:52:15.039Z,94454.08
2018-12-08T00:55:18.440Z,94457.11
2018-12-08T00:58:21.734Z,94476.85
2018-12-08T01:01:25.103Z,94477.45
2018-12-08T01:04:28.436Z,94486.89
2018-12-08T01:07:31.766Z,94485.56
2018-12-08T01:10:35.073Z,94490.36
2018-12-08T01:13:38.373Z,94489.13
2018-12-08T01:16:41.933Z,94506.30
2018-12-08T01:19:45.299Z,94521.41
2018-12-08T01:22:48.701Z,94528.47
2018-12-08T01:25:52.002Z,94546.45
2018-12-08T01:28:55.395Z,94553.12
2018-12-08T01:31:58.755Z,94549.80
2018-12-08T01:35:02.048Z,94552.44
2018-12-08T01:38:05.494Z,94556.71
2018-12-08T01:41:08.842Z,94552.16
2018-12-08T01:44:12.220Z,94558.98
2018-12-08T01:47:15.572Z,94563.47
2018-12-08T01:50:18.953Z,94569.81
2018-12-08T01:53:22.364Z,94582.45
2018-12-08T01:56:25.770Z,94581.61
2018-12-08T01:59:29.094Z,94595.91
2018-12-08T02:02:32.390Z,94586.64
2018-12-08T02:05:35.694Z,94592.05
2018-12-08T02:08:39.089Z,94593.42
2018-12-08T02:11:42.494Z,94597.14
2018-12-08T02:14:45.785Z,94595.97
2018-12-08T02:17:49.109Z,94596.66
2018-12-08T02:20:52.481Z,94610.03
2018-12-08T02:23:55.813Z,94609.88
2018-12-08T02:26:59.150Z,94617.25
2018-12-08T02:30:02.681Z,94632.75
2018-12-08T02:33:06.173Z,94635.58
2018-12-08T02:36:09.572Z,94648.34
2018-12-08T02:39:12.974Z,94646.48
2018-12-08T02:42:16.486Z,94649.33
2018-12-08T02:45:19.807Z,94662.68
2018-12-08T02:48:23.287Z,94663.60
2018-12-08T02:51:26.692Z,94666.83
2018-12-08T02:54:29.987Z,94662.48
2018-12-08T02:57:33.358Z,94663.75
2018-12-08T03:00:36.793Z,94680.97
2018-12-08T03:03:40.086Z,94667.27
2018-12-08T03:06:43.391Z,94670.63
2018-12-08T03:09:46.781Z,94671.41
2018-12-08T03:12:50.183Z,94676.78
2018-12-08T03:15:53.486Z,94685.30
2018-12-08T03:18:56.782Z,94686.75
2018-12-08T03:22:00.182Z,94687.98
2018-12-08T03:25:03.680Z,94688.41
2018-12-08T03:28:07.073Z,94699.72
2018-12-08T03:31:10.427Z,94700.01
2018-12-08T03:34:13.874Z,94713.28
2018-12-08T03:37:17.186Z,94709.47
2018-12-08T03:40:20.570Z,94704.08
2018-12-08T03:43:23.974Z,94702.52
2018-12-08T03:46:27.440Z,94717.66
2018-12-08T03:49:31.818Z,94702.63
2018-12-08T03:52:35.204Z,94715.28
2018-12-08T03:55:38.543Z,94724.66
2018-12-08T03:58:41.893Z,94728.55
2018-12-08T04:01:45.293Z,94723.95
2018-12-08T04:04:48.626Z,94733.86
2018-12-08T04:07:51.985Z,94720.54
2018-12-08T04:10:55.401Z,94724.20
2018-12-08T04:13:58.799Z,94720.95
2018-12-08T04:17:02.200Z,94723.05
2018-12-08T04:20:05.705Z,94738.58
2018-12-08T04:23:09.152Z,94726.09
2018-12-08T04:26:12.447Z,94733.16
2018-12-08T04:29:15.782Z,94736.94
2018-12-08T04:32:19.200Z,94740.14
2018-12-08T04:35:22.585Z,94760.41
2018-12-08T04:38:26.315Z,94759.05
2018-12-08T04:41:29.610Z,94768.12
2018-12-08T04:44:33.731Z,94773.17
2018-12-08T04:47:37.113Z,94773.02
2018-12-08T04:50:40.426Z,94775.23
2018-12-08T04:53:43.723Z,94780.19
2018-12-08T04:56:47.051Z,94780.05
2018-12-08T04:59:50.406Z,94781.23
2018-12-08T05:02:53.706Z,94782.55
2018-12-08T05:05:57.008Z,94789.91
2018-12-08T05:09:00.398Z,94781.81
2018-12-08T05:12:03.906Z,94785.03
2018-12-08T05:15:07.302Z,94795.20
2018-12-08T05:18:10.608Z,94792.77
2018-12-08T05:21:13.938Z,94794.89
2018-12-08T05:24:18.165Z,94789.39
2018-12-08T05:27:22.116Z,94793.55
2018-12-08T05:30:25.554Z,94797.52
2018-12-08T05:33:28.945Z,94794.66
2018-12-08T05:36:32.335Z,94803.33
2018-12-08T05:39:35.738Z,94802.94
2018-12-08T05:42:39.144Z,94801.90
2018-12-08T05:45:42.482Z,94801.41
2018-12-08T05:48:45.814Z,94804.73
2018-12-08T05:51:49.119Z,94801.23
2018-12-08T05:54:52.438Z,94790.76
2018-12-08T05:57:55.826Z,94792.56
2018-12-08T06:00:59.154Z,94798.91
2018-12-08T06:04:02.485Z,94796.28
2018-12-08T06:07:05.851Z,94797.13
2018-12-08T06:10:10.186Z,94794.25
2018-12-08T06:13:13.499Z,94796.09
2018-12-08T06:16:16.793Z,94793.13
2018-12-08T06:19:20.290Z,94793.55
2018-12-08T06:22:23.637Z,94790.77
2018-12-08T06:25:28.006Z,94788.39
2018-12-08T06:28:31.338Z,94785.30
2018-12-08T06:31:34.635Z,94784.20
2018-12-08T06:34:37.941Z,94779.23
2018-12-08T06:37:41.246Z,94776.08
2018-12-08T06:40:44.537Z,94787.98
2018-12-08T06:43:47.839Z,94785.98
2018-12-08T06:46:51.177Z,94793.05
2018-12-08T06:49:54.475Z,94787.80
2018-12-08T06:52:57.813Z,94790.33
2018-12-08T06:56:01.182Z,94795.48
2018-12-08T06:59:04.516Z,94794.73
2018-12-08T07:02:07.822Z,94791.08
2018-12-08T07:05:11.134Z,94785.58
2018-12-08T07:08:14.530Z,94791.23
2018-12-08T07:11:17.835Z,94797.02
2018-12-08T07:14:21.139Z,94798.95
2018-12-08T07:17:24.514Z,94799.61
2018-12-08T07:20:27.814Z,94802.23
2018-12-08T07:23:31.122Z,94804.39
2018-12-08T07:26:34.449Z,94806.73
2018-12-08T07:29:37.783Z,94805.19
2018-12-08T07:32:41.106Z,94817.81
2018-12-08T07:35:44.542Z,94810.96
2018-12-08T07:38:47.967Z,94818.92
2018-12-08T07:41:51.330Z,94805.00
2018-12-08T07:44:54.630Z,94816.58
2018-12-08T07:47:57.926Z,94814.37
2018-12-08T07:51:01.263Z,94814.31
2018-12-08T07:54:04.666Z,94812.22
2018-12-08T07:57:07.999Z,94801.92
2018-12-08T08:00:11.411Z,94806.48
2018-12-08T08:03:14.706Z,94799.12
2018-12-08T08:06:18.009Z,94802.00
2018-12-08T08:09:21.307Z,94792.92
2018-12-08T08:12:24.601Z,94806.28
2018-12-08T08:15:27.982Z,94800.02
2018-12-08T08:18:31.300Z,94804.09
2018-12-08T08:21:34.705Z,94811.33
2018-12-08T08:24:37.991Z,94800.83
2018-12-08T08:27:41.322Z,94812.18
2018-12-08T08:30:44.665Z,94807.47
2018-12-08T08:33:47.957Z,94800.33
2018-12-08T08:36:51.332Z,94793.09
2018-12-08T08:39:54.645Z,94797.05
2018-12-08T08:42:57.938Z,94788.19
2018-12-08T08:46:01.349Z,94792.33
2018-12-08T08:49:04.729Z,94784.34
2018-12-08T08:52:08.035Z,94775.13
2018-12-08T08:55:11.379Z,94781.12
2018-12-08T08:58:14.731Z,94771.25
2018-12-08T09:01:18.070Z,94771.73
2018-12-08T09:04:21.426Z,94764.56
2018-12-08T09:07:24.725Z,94770.52
2018-12-08T09:10:28.073Z,94780.98
2018-12-08T09:13:31.405Z,94773.30
2018-12-08T09:16:34.715Z,94773.10
2018-12-08T09:19:38.053Z,94769.49
2018-12-08T09:22:41.421Z,94772.86
2018-12-08T09:25:44.773Z,94767.88
2018-12-08T09:28:48.084Z,94760.98
2018-12-08T09:31:51.530Z,94771.48
2018-12-08T09:34:54.829Z,94752.81
2018-12-08T09:37:58.134Z,94759.07
2018-12-08T09:41:01.446Z,94750.89
2018-12-08T09:44:04.856Z,94750.14
2018-12-08T09:47:08.193Z,94735.66
2018-12-08T09:50:11.532Z,94740.93
2018-12-08T09:53:16.990Z,94744.19
2018-12-08T09:56:20.322Z,94738.47
2018-12-08T09:59:23.617Z,94729.08
2018-12-08T10:02:27.001Z,94723.27
2018-12-08T10:05:30.336Z,94717.11
2018-12-08T10:08:33.782Z,94722.87
2018-12-08T10:11:37.093Z,94719.24
2018-12-08T10:14:40.397Z,94711.93
2018-12-08T10:17:43.697Z,94721.80
2018-12-08T10:20:47.038Z,94716.05
2018-12-08T10:23:50.398Z,94719.47
2018-12-08T10:26:53.847Z,94720.56
2018-12-08T10:29:57.177Z,94707.97
2018-12-08T10:33:00.510Z,94715.11
2018-12-08T10:36:03.878Z,94704.86
2018-12-08T10:39:08.016Z,94697.06
2018-12-08T10:42:13.747Z,94687.20
2018-12-08T10:45:17.107Z,94678.14
2018-12-08T10:48:20.501Z,94674.87
2018-12-08T10:51:23.816Z,94704.55
2018-12-08T10:54:27.151Z,94685.61
2018-12-08T10:57:30.489Z,94678.32
2018-12-08T11:00:39.358Z,94686.70
2018-12-08T11:03:47.569Z,94692.38
2018-12-08T11:06:50.866Z,94681.73
2018-12-08T11:09:54.350Z,94685.62
2018-12-08T11:12:57.694Z,94678.86
2018-12-08T11:16:00.994Z,94684.92
2018-12-08T11:19:04.410Z,94677.78
2018-12-08T11:22:07.748Z,94669.45
2018-12-08T11:25:11.103Z,94657.69
2018-12-08T11:28:14.518Z,94659.94
2018-12-08T11:31:17.858Z,94667.19
2018-12-08T11:34:21.186Z,94664.70
2018-12-08T11:37:24.586Z,94655.14
2018-12-08T11:40:27.883Z,94645.56
2018-12-08T11:43:31.183Z,94653.14
2018-12-08T11:46:34.518Z,94637.42
2018-12-08T11:49:37.970Z,94632.46
2018-12-08T11:52:41.318Z,94628.29
2018-12-08T11:55:44.626Z,94631.94
2018-12-08T11:58:47.939Z,94630.30
2018-12-08T12:01:51.376Z,94637.94
2018-12-08T12:04:54.678Z,94625.95
2018-12-08T12:07:58.041Z,94618.23
2018-12-08T12:11:01.363Z,94594.86
2018-12-08T12:14:07.013Z,94601.70
2018-12-08T12:20:18.980Z,94619.98
2018-12-08T12:23:22.345Z,94612.16
2018-12-08T12:26:26.602Z,94622.19
2018-12-08T12:29:30.031Z,94607.99
2018-12-08T12:32:33.409Z,94609.40
2018-12-08T12:35:36.810Z,94597.19
2018-12-08T12:38:40.126Z,94598.77
2018-12-08T12:41:43.443Z,94591.81
2018-12-08T12:44:46.846Z,94595.28
2018-12-08T12:47:50.160Z,94601.58
2018-12-08T12:50:53.571Z,94603.84
2018-12-08T12:53:57.235Z,94599.38
2018-12-08T12:57:00.629Z,94596.58
2018-12-08T13:00:07.310Z,94606.49
2018-12-08T13:03:10.637Z,94592.92
2018-12-08T13:06:14.087Z,94600.89
2018-12-08T13:09:17.404Z,94598.71
2018-12-08T13:12:20.818Z,94602.52
2018-12-08T13:15:24.129Z,94603.14
2018-12-08T13:18:27.542Z,94597.13
2018-12-08T13:21:30.950Z,94583.32
2018-12-08T13:24:34.298Z,94613.98
2018-12-08T13:27:37.593Z,94580.21
2018-12-08T13:30:40.930Z,94573.45
2018-12-08T13:33:44.266Z,94554.60
2018-12-08T13:36:47.629Z,94562.26
2018-12-08T13:39:50.927Z,94567.16
2018-12-08T13:42:54.343Z,94558.84
2018-12-08T13:45:57.713Z,94554.64
2018-12-08T13:49:01.033Z,94558.95
2018-12-08T13:52:04.522Z,94559.36
2018-12-08T13:55:08.235Z,94563.11
2018-12-08T13:58:11.529Z,94561.82
2018-12-08T14:01:15.351Z,94570.88
2018-12-08T14:04:19.963Z,94557.63
2018-12-08T14:07:23.439Z,94551.53
2018-12-08T14:10:26.949Z,94569.40
2018-12-08T14:13:30.325Z,94568.13
2018-12-08T14:16:34.062Z,94575.34
2018-12-08T14:19:37.377Z,94557.48
2018-12-08T14:22:40.683Z,94571.54
2018-12-08T14:25:45.254Z,94564.47
2018-12-08T14:28:48.798Z,94577.41
2018-12-08T14:31:52.434Z,94585.63
2018-12-08T14:34:55.730Z,94574.17
2018-12-08T14:37:59.070Z,94576.27
2018-12-08T14:41:02.421Z,94576.99
2018-12-08T14:44:05.761Z,94594.31
2018-12-08T14:47:09.778Z,94575.93
2018-12-08T14:50:13.414Z,94574.64
2018-12-08T14:53:16.758Z,94585.34
2018-12-08T14:56:20.073Z,94600.75
2018-12-08T14:59:23.506Z,94600.58
2018-12-08T15:02:52.268Z,94600.89
2018-12-08T15:05:57.270Z,94591.59
2018-12-08T15:09:00.677Z,94611.49
2018-12-08T15:12:04.052Z,94604.35
2018-12-08T15:15:07.821Z,94622.59
2018-12-08T15:18:11.177Z,94614.81
2018-12-08T15:21:14.538Z,94598.91
2018-12-08T15:24:18.630Z,94607.08
2018-12-08T15:27:21.973Z,94600.72
2018-12-08T15:30:25.299Z,94610.26
2018-12-08T15:33:28.789Z,94606.17
2018-12-08T15:36:32.180Z,94605.86
2018-12-08T15:39:36.013Z,94622.06
2018-12-08T15:42:39.600Z,94605.63
2018-12-08T15:45:42.958Z,94605.70
2018-12-08T15:48:46.816Z,94616.48
2018-12-08T15:51:54.105Z,94611.52
2018-12-08T15:54:57.401Z,94612.83
2018-12-08T15:58:00.762Z,94614.15
2018-12-08T16:01:04.292Z,94616.31
2018-12-08T16:04:07.614Z,94599.88
2018-12-08T16:07:10.983Z,94590.98
2018-12-08T16:10:14.393Z,94593.27
2018-12-08T16:13:17.766Z,94587.15
2018-12-08T16:16:21.093Z,94595.84
2018-12-08T16:19:24.427Z,94582.66
2018-12-08T16:22:28.369Z,94578.94
2018-12-08T16:25:31.690Z,94575.28
2018-12-08T16:28:35.068Z,94576.47
2018-12-08T16:31:38.422Z,94575.92
2018-12-08T16:34:41.725Z,94584.22
2018-12-08T16:37:45.501Z,94569.17
2018-12-08T16:40:48.868Z,94560.92
2018-12-08T16:43:52.395Z,94568.92
2018-12-08T16:46:55.724Z,94583.81
2018-12-08T16:49:59.058Z,94589.02
2018-12-08T16:53:02.392Z,94583.09
2018-12-08T16:56:05.738Z,94591.72
2018-12-08T16:59:09.137Z,94592.02
2018-12-08T17:02:12.695Z,94591.31
2018-12-08T17:05:16.134Z,94578.76
2018-12-08T17:08:19.504Z,94569.96
2018-12-08T17:11:23.982Z,94580.63
2018-12-08T17:14:27.417Z,94581.23
2018-12-08T17:17:31.985Z,94573.08
2018-12-08T17:20:35.381Z,94556.17
2018-12-08T17:23:38.790Z,94555.16
2018-12-08T17:26:42.161Z,94562.70
2018-12-08T17:29:45.494Z,94555.88
2018-12-08T17:32:48.842Z,94560.61
2018-12-08T17:35:52.143Z,94543.45
2018-12-08T17:38:55.485Z,94538.48
2018-12-08T17:41:58.841Z,94543.09
2018-12-08T17:45:02.480Z,94534.41
2018-12-08T17:48:05.765Z,94534.84
2018-12-08T17:51:09.462Z,94529.97
2018-12-08T17:54:13.049Z,94512.58
2018-12-08T17:57:16.375Z,94518.22
2018-12-08T18:00:19.803Z,94515.74
2018-12-08T18:03:23.169Z,94509.38
2018-12-08T18:06:26.632Z,94508.91
2018-12-08T18:09:30.413Z,94513.87
2018-12-08T18:12:33.799Z,94508.00
2018-12-08T18:15:37.289Z,94511.49
2018-12-08T18:18:40.802Z,94503.34
2018-12-08T18:21:44.457Z,94507.13
2018-12-08T18:24:47.827Z,94495.33
2018-12-08T18:27:51.138Z,94487.86
2018-12-08T18:30:54.610Z,94491.22
2018-12-08T18:33:58.038Z,94484.08
2018-12-08T18:37:01.421Z,94493.83
2018-12-08T18:40:05.420Z,94490.69
2018-12-08T18:43:08.838Z,94481.58
2018-12-08T18:46:12.242Z,94490.66
2018-12-08T18:49:15.546Z,94488.72
2018-12-08T18:52:18.875Z,94476.80
2018-12-08T18:55:22.213Z,94488.14
2018-12-08T18:58:25.605Z,94478.35
2018-12-08T19:01:28.950Z,94469.57
2018-12-08T19:04:32.243Z,94463.20
2018-12-08T19:07:35.673Z,94467.02
2018-12-08T19:10:39.009Z,94463.44
2018-12-08T19:13:42.302Z,94453.68
2018-12-08T19:16:45.646Z,94444.98
2018-12-08T19:19:48.938Z,94456.41
2018-12-08T19:22:52.233Z,94447.08
2018-12-08T19:25:55.587Z,94440.36
2018-12-08T19:28:58.967Z,94448.20
2018-12-08T19:32:02.318Z,94442.41
2018-12-08T19:35:05.967Z,94434.71
2018-12-08T19:38:09.422Z,94432.39
2018-12-08T19:41:12.836Z,94428.57
2018-12-08T19:44:16.150Z,94409.22
2018-12-08T19:47:19.792Z,94422.55
2018-12-08T19:50:23.127Z,94424.09
2018-12-08T19:53:26.442Z,94411.89
2018-12-08T19:56:29.825Z,94393.39
2018-12-08T19:59:34.129Z,94394.48
2018-12-08T20:02:37.681Z,94384.26
2018-12-08T20:05:41.401Z,94389.45
2018-12-08T20:08:44.794Z,94373.71
2018-12-08T20:11:48.075Z,94355.56
2018-12-08T20:14:51.398Z,94355.67
2018-12-08T20:17:54.754Z,94357.53
2018-12-08T20:20:58.051Z,94343.91
2018-12-08T20:24:01.473Z,94339.63
2018-12-08T20:27:04.872Z,94344.27
2018-12-08T20:30:08.493Z,94339.70
2018-12-08T20:33:11.849Z,94348.50
2018-12-08T20:36:15.165Z,94337.06
2018-12-08T20:39:18.463Z,94330.58
2018-12-08T20:42:21.838Z,94323.28
2018-12-08T20:45:25.155Z,94316.34
2018-12-08T20:48:28.524Z,94321.00
2018-12-08T20:51:31.848Z,94306.59
2018-12-08T20:54:35.175Z,94300.31
2018-12-08T20:57:39.221Z,94295.28
2018-12-08T21:00:52.247Z,94289.17
2018-12-08T21:03:57.767Z,94287.17
2018-12-08T21:07:01.722Z,94287.22
2018-12-08T21:10:06.521Z,94288.12
2018-12-08T21:13:09.970Z,94278.99
2018-12-08T21:16:13.321Z,94271.17
2018-12-08T21:19:16.650Z,94269.31
2018-12-08T21:22:20.005Z,94267.67
2018-12-08T21:25:23.621Z,94262.17
2018-12-08T21:28:26.981Z,94253.43
2018-12-08T21:31:30.333Z,94262.14
2018-12-08T21:34:33.633Z,94258.27
2018-12-08T21:37:36.969Z,94249.89
2018-12-08T21:40:40.524Z,94250.43
2018-12-08T21:43:43.869Z,94237.30
2018-12-08T21:46:47.181Z,94235.98
2018-12-08T21:49:50.725Z,94220.12
2018-12-08T21:52:54.033Z,94197.24
2018-12-08T21:55:57.377Z,94196.16
2018-12-08T21:59:00.781Z,94178.87
2018-12-08T22:02:04.478Z,94179.75
2018-12-08T22:05:07.893Z,94167.73
2018-12-08T22:08:11.301Z,94161.14
2018-12-08T22:11:14.630Z,94167.97
2018-12-08T22:14:17.916Z,94166.66
2018-12-08T22:17:21.219Z,94167.17
2018-12-08T22:20:24.518Z,94153.31
2018-12-08T22:23:27.814Z,94149.66
2018-12-08T22:26:31.156Z,94128.31
2018-12-08T22:29:34.446Z,94131.28
2018-12-08T22:32:37.822Z,94116.38
2018-12-08T22:35:41.242Z,94132.48
2018-12-08T22:38:44.544Z,94126.56
2018-12-08T22:41:47.869Z,94124.54
2018-12-08T22:44:51.244Z,94118.52
2018-12-08T22:47:54.602Z,94102.31
2018-12-08T22:50:57.910Z,94090.56
2018-12-08T22:54:01.202Z,94085.38
2018-12-08T22:57:04.687Z,94076.11
2018-12-08T23:03:54.139Z,94069.74
2018-12-08T23:07:01.806Z,94059.04
2018-12-08T23:10:07.734Z,94069.95
2018-12-08T23:13:11.069Z,94058.94
2018-12-08T23:16:14.492Z,94045.94
2018-12-08T23:19:17.909Z,94039.36
2018-12-08T23:22:21.239Z,94024.81
2018-12-08T23:25:24.636Z,94013.38
2018-12-08T23:28:27.988Z,94002.69
2018-12-08T23:31:31.324Z,93996.95
2018-12-08T23:34:34.665Z,93994.16
2018-12-08T23:37:37.989Z,93987.86
2018-12-08T23:40:41.338Z,93981.56
2018-12-08T23:43:44.889Z,93979.80
2018-12-08T23:46:48.211Z,93971.83
2018-12-08T23:49:51.775Z,93966.63
2018-12-08T23:52:55.205Z,93968.91
2018-12-08T23:55:58.705Z,93971.10
2018-12-08T23:59:02.401Z,93980.20
